createdAt,value
2023-04-15T00:01:20.057Z,18.10
2023-04-15T00:03:47.563Z,18.00
2023-04-15T00:06:14.711Z,18.00
2023-04-15T00:08:42.471Z,18.00
2023-04-15T00:11:09.264Z,18.00
2023-04-15T00:13:36.074Z,17.90
2023-04-15T00:16:03.075Z,17.90
2023-04-15T00:18:30.137Z,17.90
2023-04-15T00:20:56.961Z,17.80
2023-04-15T00:23:23.765Z,17.80
2023-04-15T00:25:51.040Z,17.80
2023-04-15T00:28:18.127Z,17.80
2023-04-15T00:30:45.074Z,17.80
2023-04-15T00:33:12.749Z,17.70
2023-04-15T00:35:39.550Z,17.70
2023-04-15T00:38:07.989Z,17.70
2023-04-15T00:40:35.473Z,17.70
2023-04-15T00:43:02.448Z,17.60
2023-04-15T00:45:29.466Z,17.60
2023-04-15T00:47:56.835Z,17.60
2023-04-15T00:50:23.802Z,17.60
2023-04-15T00:52:50.698Z,17.60
2023-04-15T00:55:17.489Z,17.50
2023-04-15T00:57:44.971Z,17.50
2023-04-15T01:00:12.243Z,17.50
2023-04-15T01:02:39.948Z,17.50
2023-04-15T01:05:07.983Z,17.40
2023-04-15T01:07:34.878Z,17.40
2023-04-15T01:10:04.201Z,17.40
2023-04-15T01:12:33.374Z,17.30
2023-04-15T01:15:00.941Z,17.30
2023-04-15T01:17:28.291Z,17.30
2023-04-15T01:19:58.825Z,17.30
2023-04-15T01:22:27.230Z,17.20
2023-04-15T01:25:10.010Z,17.30
2023-04-15T01:27:40.032Z,17.20
2023-04-15T01:30:08.654Z,17.20
2023-04-15T01:32:35.752Z,17.10
2023-04-15T01:35:02.937Z,17.10
2023-04-15T01:37:30.027Z,17.10
2023-04-15T01:39:58.065Z,17.10
2023-04-15T01:42:24.992Z,17.00
2023-04-15T01:44:52.037Z,17.00
2023-04-15T01:47:19.064Z,17.00
2023-04-15T01:49:46.055Z,17.00
2023-04-15T01:52:13.060Z,16.90
2023-04-15T01:54:40.992Z,16.90
2023-04-15T01:57:07.804Z,16.90
2023-04-15T01:59:34.779Z,16.90
2023-04-15T02:02:01.790Z,16.90
2023-04-15T02:04:28.911Z,16.90
2023-04-15T02:06:59.828Z,16.80
2023-04-15T02:09:26.667Z,16.80
2023-04-15T02:11:54.399Z,16.80
2023-04-15T02:14:21.507Z,16.80
2023-04-15T02:16:48.515Z,16.80
2023-04-15T02:19:16.291Z,16.80
2023-04-15T02:21:43.201Z,16.70
2023-04-15T02:24:10.169Z,16.70
2023-04-15T02:26:37.385Z,16.70
2023-04-15T02:29:04.217Z,16.70
2023-04-15T02:31:34.100Z,16.60
2023-04-15T02:34:03.143Z,16.60
2023-04-15T02:36:31.674Z,16.60
2023-04-15T02:38:58.765Z,16.50
2023-04-15T02:41:28.453Z,16.50
2023-04-15T02:43:55.933Z,16.50
2023-04-15T02:46:23.037Z,16.50
2023-04-15T02:48:50.536Z,16.40
2023-04-15T02:51:22.650Z,16.40
2023-04-15T02:53:50.556Z,16.40
2023-04-15T02:56:18.068Z,16.40
2023-04-15T02:58:45.801Z,16.40
2023-04-15T03:01:12.861Z,16.30
2023-04-15T03:03:41.124Z,16.30
2023-04-15T03:06:09.046Z,16.30
2023-04-15T03:08:36.615Z,16.30
2023-04-15T03:11:04.534Z,16.30
2023-04-15T03:13:32.573Z,16.30
2023-04-15T03:16:04.539Z,16.20
2023-04-15T03:18:32.756Z,16.20
2023-04-15T03:21:02.903Z,16.20
2023-04-15T03:23:32.241Z,16.20
2023-04-15T03:26:02.648Z,16.10
2023-04-15T03:28:31.516Z,16.10
2023-04-15T03:30:59.668Z,16.10
2023-04-15T03:33:26.489Z,16.00
2023-04-15T03:35:53.765Z,16.00
2023-04-15T03:38:20.663Z,16.00
2023-04-15T03:40:47.564Z,16.00
2023-04-15T03:43:14.534Z,16.00
2023-04-15T03:45:41.389Z,16.00
2023-04-15T03:48:17.454Z,15.90
2023-04-15T03:50:45.225Z,15.90
2023-04-15T03:53:12.175Z,15.90
2023-04-15T03:55:39.249Z,15.90
2023-04-15T03:58:06.348Z,15.90
2023-04-15T04:00:33.306Z,15.90
2023-04-15T04:03:00.231Z,15.90
2023-04-15T04:05:27.533Z,15.80
2023-04-15T04:07:54.250Z,15.80
2023-04-15T04:10:21.080Z,15.80
2023-04-15T04:12:47.964Z,15.70
2023-04-15T04:15:14.740Z,15.80
2023-04-15T04:17:41.543Z,15.80
2023-04-15T04:20:08.812Z,15.70
2023-04-15T04:22:40.001Z,15.70
2023-04-15T04:25:08.589Z,15.70
2023-04-15T04:27:35.681Z,15.70
2023-04-15T04:30:02.711Z,15.70
2023-04-15T04:32:29.491Z,15.60
2023-04-15T04:34:56.537Z,15.60
2023-04-15T04:37:23.861Z,15.60
2023-04-15T04:39:50.848Z,15.60
2023-04-15T04:42:17.758Z,15.60
2023-04-15T04:44:44.733Z,15.60
2023-04-15T04:47:11.683Z,15.50
2023-04-15T04:49:38.589Z,15.50
2023-04-15T04:52:05.777Z,15.50
2023-04-15T04:54:32.692Z,15.50
2023-04-15T04:57:00.133Z,15.50
2023-04-15T04:59:27.364Z,15.40
2023-04-15T05:01:54.179Z,15.40
2023-04-15T05:04:21.612Z,15.40
2023-04-15T05:06:48.458Z,15.40
2023-04-15T05:09:15.748Z,15.40
2023-04-15T05:11:42.746Z,15.40
2023-04-15T05:14:09.990Z,15.40
2023-04-15T05:16:37.140Z,15.30
2023-04-15T05:19:04.933Z,15.30
2023-04-15T05:21:32.990Z,15.30
2023-04-15T05:24:00.166Z,15.30
2023-04-15T05:26:27.712Z,15.30
2023-04-15T05:28:55.168Z,15.30
2023-04-15T05:31:22.555Z,15.20
2023-04-15T05:33:49.667Z,15.20
2023-04-15T05:36:16.963Z,15.20
2023-04-15T05:38:43.907Z,15.20
2023-04-15T05:41:10.924Z,15.20
2023-04-15T05:43:37.909Z,15.20
2023-04-15T05:46:04.986Z,15.20
2023-04-15T05:48:32.173Z,15.20
2023-04-15T05:50:59.158Z,15.20
2023-04-15T05:53:26.282Z,15.20
2023-04-15T05:55:53.494Z,15.20
2023-04-15T05:58:21.032Z,15.20
2023-04-15T06:00:48.357Z,15.20
2023-04-15T06:03:16.008Z,15.20
2023-04-15T06:05:44.600Z,15.20
2023-04-15T06:08:11.316Z,15.20
2023-04-15T06:10:38.138Z,15.20
2023-04-15T06:13:04.871Z,15.20
2023-04-15T06:15:32.048Z,15.20
2023-04-15T06:17:58.850Z,15.20
2023-04-15T06:20:25.643Z,15.20
2023-04-15T06:22:52.370Z,15.20
2023-04-15T06:25:19.121Z,15.20
2023-04-15T06:27:46.031Z,15.20
2023-04-15T06:30:12.859Z,15.20
2023-04-15T06:32:39.673Z,15.30
2023-04-15T06:35:06.704Z,15.30
2023-04-15T06:37:33.440Z,15.30
2023-04-15T06:40:00.495Z,15.40
2023-04-15T06:42:27.458Z,15.40
2023-04-15T06:44:54.173Z,15.40
2023-04-15T06:47:20.969Z,15.40
2023-04-15T06:49:47.708Z,15.50
2023-04-15T06:52:14.497Z,15.50
2023-04-15T06:54:41.236Z,15.60
2023-04-15T06:57:09.207Z,15.60
2023-04-15T06:59:36.169Z,15.60
2023-04-15T07:02:03.087Z,15.60
2023-04-15T07:04:29.910Z,15.60
2023-04-15T07:06:56.895Z,15.70
2023-04-15T07:09:24.696Z,15.70
2023-04-15T07:11:51.560Z,15.70
2023-04-15T07:14:18.478Z,15.70
2023-04-15T07:16:45.315Z,15.80
2023-04-15T07:19:12.145Z,15.80
2023-04-15T07:21:41.235Z,15.90
2023-04-15T07:24:10.424Z,15.90
2023-04-15T07:26:37.201Z,15.90
2023-04-15T07:29:04.218Z,15.90
2023-04-15T07:31:31.404Z,15.90
2023-04-15T07:33:58.579Z,16.00
2023-04-15T07:36:25.436Z,16.00
2023-04-15T07:38:52.573Z,16.00
2023-04-15T07:41:19.337Z,16.00
2023-04-15T07:43:46.231Z,16.10
2023-04-15T07:46:13.048Z,16.10
2023-04-15T07:48:39.771Z,16.10
2023-04-15T07:51:06.699Z,16.20
2023-04-15T07:53:33.620Z,16.20
2023-04-15T07:56:00.625Z,16.20
2023-04-15T07:58:27.457Z,16.20
2023-04-15T08:00:55.219Z,16.30
2023-04-15T08:03:22.811Z,16.30
2023-04-15T08:05:49.670Z,16.40
2023-04-15T08:08:16.781Z,16.40
2023-04-15T08:10:43.576Z,16.40
2023-04-15T08:13:10.340Z,16.50
2023-04-15T08:15:37.309Z,16.50
2023-04-15T08:18:04.073Z,16.60
2023-04-15T08:20:30.782Z,16.60
2023-04-15T08:22:58.257Z,16.70
2023-04-15T08:25:24.971Z,16.70
2023-04-15T08:27:51.672Z,16.80
2023-04-15T08:30:19.348Z,16.90
2023-04-15T08:32:49.302Z,17.00
2023-04-15T08:35:16.079Z,17.10
2023-04-15T08:37:42.879Z,17.20
2023-04-15T08:40:10.785Z,17.30
2023-04-15T08:42:45.025Z,17.40
2023-04-15T08:45:11.894Z,17.60
2023-04-15T08:47:39.996Z,17.70
2023-04-15T08:50:09.345Z,17.80
2023-04-15T08:52:36.331Z,17.90
2023-04-15T08:55:03.635Z,18.10
2023-04-15T08:57:30.440Z,18.20
2023-04-15T08:59:57.785Z,18.30
2023-04-15T09:02:26.411Z,18.40
2023-04-15T09:04:53.744Z,18.60
2023-04-15T09:07:20.482Z,18.70
2023-04-15T09:09:48.714Z,18.80
2023-04-15T09:12:16.914Z,18.90
2023-04-15T09:14:45.979Z,19.00
2023-04-15T09:17:12.970Z,19.00
2023-04-15T09:19:39.714Z,19.00
2023-04-15T09:22:06.674Z,19.10
2023-04-15T09:24:38.855Z,19.10
2023-04-15T09:27:06.391Z,19.20
2023-04-15T09:29:33.579Z,19.30
2023-04-15T09:32:10.861Z,19.30
2023-04-15T09:34:38.054Z,19.40
2023-04-15T09:37:04.911Z,19.50
2023-04-15T09:39:53.709Z,19.60
2023-04-15T09:42:27.311Z,19.70
2023-04-15T09:44:55.672Z,19.70
2023-04-15T09:47:32.819Z,19.80
2023-04-15T09:50:02.531Z,19.90
2023-04-15T09:52:30.163Z,20.00
2023-04-15T09:55:00.940Z,20.10
2023-04-15T09:57:35.892Z,20.20
2023-04-15T10:00:05.258Z,20.30
2023-04-15T10:02:34.135Z,20.40
2023-04-15T10:05:02.245Z,20.50
2023-04-15T10:07:29.688Z,20.60
2023-04-15T10:09:56.625Z,20.70
2023-04-15T10:12:23.474Z,20.90
2023-04-15T10:14:59.502Z,21.00
2023-04-15T10:17:31.142Z,21.10
2023-04-15T10:20:02.005Z,21.20
2023-04-15T10:22:29.161Z,21.30
2023-04-15T10:25:00.785Z,21.40
2023-04-15T10:27:28.224Z,21.60
2023-04-15T10:29:55.479Z,21.70
2023-04-15T10:32:22.664Z,21.80
2023-04-15T10:34:52.439Z,21.90
2023-04-15T10:37:37.685Z,22.00
2023-04-15T10:40:23.824Z,22.20
2023-04-15T10:42:50.671Z,22.20
2023-04-15T10:45:18.938Z,22.20
2023-04-15T10:47:45.902Z,22.40
2023-04-15T10:50:12.731Z,22.40
2023-04-15T10:52:42.651Z,22.60
2023-04-15T10:55:19.973Z,22.60
2023-04-15T10:57:46.679Z,22.70
2023-04-15T11:00:15.797Z,22.70
2023-04-15T11:02:52.314Z,22.80
2023-04-15T11:05:20.723Z,22.90
2023-04-15T11:07:52.029Z,22.90
2023-04-15T11:10:20.704Z,23.00
2023-04-15T11:12:51.177Z,23.00
2023-04-15T11:15:37.899Z,23.10
2023-04-15T11:18:14.476Z,23.10
2023-04-15T11:20:45.218Z,23.10
2023-04-15T11:23:15.279Z,23.00
2023-04-15T11:25:43.521Z,23.10
2023-04-15T11:28:12.025Z,23.10
2023-04-15T11:30:39.942Z,23.10
2023-04-15T11:33:12.108Z,23.10
2023-04-15T11:35:40.987Z,23.20
2023-04-15T11:38:13.674Z,23.20
2023-04-15T11:40:43.817Z,23.20
2023-04-15T11:43:22.048Z,23.30
2023-04-15T11:46:00.381Z,23.40
2023-04-15T11:48:32.939Z,23.50
2023-04-15T11:51:05.334Z,23.50
2023-04-15T11:53:44.114Z,23.60
2023-04-15T11:56:22.520Z,23.70
2023-04-15T11:58:53.027Z,23.80
2023-04-15T12:01:20.231Z,23.90
2023-04-15T12:03:48.398Z,23.90
2023-04-15T12:06:16.799Z,24.00
2023-04-15T12:09:16.543Z,24.10
2023-04-15T12:11:48.887Z,24.20
2023-04-15T12:14:28.482Z,24.20
2023-04-15T12:17:05.824Z,24.30
2023-04-15T12:19:37.701Z,24.40
2023-04-15T12:22:10.082Z,24.50
2023-04-15T12:24:38.040Z,24.50
2023-04-15T12:27:06.632Z,24.50
2023-04-15T12:29:35.125Z,24.60
2023-04-15T12:32:20.913Z,24.70
2023-04-15T12:34:52.264Z,24.80
2023-04-15T12:37:19.606Z,24.80
2023-04-15T12:39:49.021Z,24.80
2023-04-15T12:42:16.748Z,24.90
2023-04-15T12:44:43.785Z,24.90
2023-04-15T12:47:11.478Z,25.00
2023-04-15T12:49:39.443Z,25.00
2023-04-15T12:52:06.554Z,25.10
2023-04-15T12:54:33.705Z,25.10
2023-04-15T12:57:01.034Z,25.10
2023-04-15T12:59:28.523Z,25.10
2023-04-15T13:01:55.790Z,25.10
2023-04-15T13:04:23.043Z,25.10
2023-04-15T13:06:50.002Z,25.10
2023-04-15T13:09:16.959Z,25.00
2023-04-15T13:11:43.874Z,25.10
2023-04-15T13:14:14.056Z,25.10
2023-04-15T13:16:41.507Z,25.10
2023-04-15T13:19:08.468Z,25.10
2023-04-15T13:21:36.377Z,25.10
2023-04-15T13:24:04.865Z,25.10
2023-04-15T13:26:32.230Z,25.10
2023-04-15T13:28:59.519Z,25.10
2023-04-15T13:31:27.273Z,25.00
2023-04-15T13:33:54.176Z,25.00
2023-04-15T13:36:21.219Z,25.00
2023-04-15T13:38:50.979Z,25.00
2023-04-15T13:41:18.416Z,25.00
2023-04-15T13:43:45.700Z,25.10
2023-04-15T13:46:12.958Z,25.10
2023-04-15T13:48:40.169Z,25.10
2023-04-15T13:51:07.158Z,25.10
2023-04-15T13:53:38.251Z,25.20
2023-04-15T13:56:08.104Z,25.20
2023-04-15T13:58:35.013Z,25.20
2023-04-15T14:01:03.328Z,25.20
2023-04-15T14:03:32.511Z,25.10
2023-04-15T14:05:59.869Z,25.20
2023-04-15T14:08:26.954Z,25.10
2023-04-15T14:10:54.127Z,25.10
2023-04-15T14:13:21.849Z,25.10
2023-04-15T14:15:48.916Z,25.10
2023-04-15T14:18:16.147Z,25.10
2023-04-15T14:20:42.994Z,25.10
2023-04-15T14:23:10.015Z,25.10
2023-04-15T14:25:39.806Z,25.10
2023-04-15T14:28:07.602Z,25.10
2023-04-15T14:30:34.516Z,25.10
2023-04-15T14:33:01.494Z,25.00
2023-04-15T14:35:29.212Z,25.00
2023-04-15T14:37:56.714Z,25.10
2023-04-15T14:40:23.917Z,25.10
2023-04-15T14:42:51.536Z,25.20
2023-04-15T14:45:18.778Z,25.20
2023-04-15T14:47:45.851Z,25.20
2023-04-15T14:50:13.098Z,25.30
2023-04-15T14:52:40.297Z,25.30
2023-04-15T14:55:10.342Z,25.30
2023-04-15T14:57:41.535Z,25.30
2023-04-15T15:00:10.160Z,25.30
2023-04-15T15:02:40.333Z,25.40
2023-04-15T15:05:10.071Z,25.40
2023-04-15T15:07:38.288Z,25.30
2023-04-15T15:10:06.213Z,25.30
2023-04-15T15:12:33.375Z,25.20
2023-04-15T15:15:01.630Z,25.20
2023-04-15T15:17:30.019Z,25.10
2023-04-15T15:19:57.093Z,25.10
2023-04-15T15:22:24.660Z,25.00
2023-04-15T15:24:51.483Z,25.00
2023-04-15T15:27:18.321Z,24.90
2023-04-15T15:29:45.228Z,24.90
2023-04-15T15:32:12.135Z,24.80
2023-04-15T15:34:39.177Z,24.80
2023-04-15T15:37:06.471Z,24.70
2023-04-15T15:39:35.352Z,24.70
2023-04-15T15:42:02.341Z,24.60
2023-04-15T15:44:29.300Z,24.50
2023-04-15T15:46:56.386Z,24.40
2023-04-15T15:49:23.339Z,24.30
2023-04-15T15:51:50.453Z,24.30
2023-04-15T15:54:17.921Z,24.20
2023-04-15T15:56:45.002Z,24.20
2023-04-15T15:59:11.941Z,24.20
2023-04-15T16:01:38.800Z,24.10
2023-04-15T16:04:06.002Z,24.00
2023-04-15T16:06:35.000Z,24.00
2023-04-15T16:09:02.697Z,23.90
2023-04-15T16:11:29.954Z,23.90
2023-04-15T16:13:56.797Z,23.80
2023-04-15T16:16:24.294Z,23.80
2023-04-15T16:18:51.172Z,23.70
2023-04-15T16:21:18.048Z,23.60
2023-04-15T16:23:44.895Z,23.60
2023-04-15T16:26:11.712Z,23.50
2023-04-15T16:28:38.671Z,23.40
2023-04-15T16:31:05.614Z,23.40
2023-04-15T16:33:32.568Z,23.30
2023-04-15T16:35:59.461Z,23.30
2023-04-15T16:38:26.438Z,23.30
2023-04-15T16:40:53.236Z,23.20
2023-04-15T16:43:20.066Z,23.20
2023-04-15T16:45:51.070Z,23.10
2023-04-15T16:48:19.289Z,23.10
2023-04-15T16:50:46.300Z,23.00
2023-04-15T16:53:14.457Z,23.00
2023-04-15T16:55:41.365Z,22.90
2023-04-15T16:58:08.568Z,22.90
2023-04-15T17:00:38.364Z,22.80
2023-04-15T17:03:06.171Z,22.80
2023-04-15T17:05:33.536Z,22.80
2023-04-15T17:08:00.389Z,22.70
2023-04-15T17:10:27.781Z,22.70
2023-04-15T17:12:56.648Z,22.70
2023-04-15T17:15:23.577Z,22.60
2023-04-15T17:17:50.546Z,22.60
2023-04-15T17:20:17.556Z,22.60
2023-04-15T17:22:44.454Z,22.50
2023-04-15T17:25:11.233Z,22.50
2023-04-15T17:27:38.682Z,22.50
2023-04-15T17:30:07.130Z,22.40
2023-04-15T17:32:34.998Z,22.40
2023-04-15T17:35:05.912Z,22.40
2023-04-15T17:37:33.882Z,22.30
2023-04-15T17:40:00.709Z,22.30
2023-04-15T17:42:27.576Z,22.30
2023-04-15T17:44:54.349Z,22.20
2023-04-15T17:47:21.302Z,22.20
2023-04-15T17:49:48.276Z,22.10
2023-04-15T17:52:15.120Z,22.10
2023-04-15T17:54:42.094Z,22.00
2023-04-15T17:57:09.691Z,22.00
2023-04-15T17:59:37.049Z,21.90
2023-04-15T18:02:04.026Z,21.90
2023-04-15T18:04:31.076Z,21.80
2023-04-15T18:06:57.955Z,21.80
2023-04-15T18:09:24.806Z,21.80
2023-04-15T18:11:51.605Z,21.70
2023-04-15T18:14:31.168Z,21.70
2023-04-15T18:17:01.254Z,21.60
2023-04-15T18:19:28.109Z,21.60
2023-04-15T18:21:55.087Z,21.50
2023-04-15T18:24:22.659Z,21.50
2023-04-15T18:26:49.672Z,21.40
2023-04-15T18:29:16.619Z,21.40
2023-04-15T18:31:43.988Z,21.40
2023-04-15T18:34:10.866Z,21.30
2023-04-15T18:36:37.842Z,21.30
2023-04-15T18:39:05.237Z,21.20
2023-04-15T18:41:32.638Z,21.20
2023-04-15T18:43:59.721Z,21.20
2023-04-15T18:46:27.658Z,21.10
2023-04-15T18:48:54.737Z,21.10
2023-04-15T18:51:22.362Z,21.00
2023-04-15T18:53:49.266Z,21.00
2023-04-15T18:56:16.544Z,20.90
2023-04-15T18:59:26.002Z,20.90
2023-04-15T19:01:32.036Z,20.90
2023-04-15T19:03:59.646Z,20.70
2023-04-15T19:06:27.232Z,20.70
2023-04-15T19:08:54.622Z,20.70
2023-04-15T19:11:21.808Z,20.60
2023-04-15T19:13:49.108Z,20.60
2023-04-15T19:16:16.138Z,20.50
2023-04-15T19:18:43.223Z,20.50
2023-04-15T19:21:11.246Z,20.40
2023-04-15T19:23:38.506Z,20.40
2023-04-15T19:26:08.209Z,20.40
2023-04-15T19:28:35.419Z,20.40
2023-04-15T19:31:02.244Z,20.30
2023-04-15T19:33:31.476Z,20.30
2023-04-15T19:36:00.822Z,20.30
2023-04-15T19:38:27.689Z,20.20
2023-04-15T19:40:54.454Z,20.10
2023-04-15T19:43:21.257Z,20.10
2023-04-15T19:45:49.384Z,20.10
2023-04-15T19:48:16.770Z,20.10
2023-04-15T19:50:43.504Z,20.10
2023-04-15T19:53:10.339Z,20.10
2023-04-15T19:55:37.081Z,20.10
2023-04-15T19:58:03.957Z,20.00
2023-04-15T20:00:31.327Z,20.00
2023-04-15T20:02:58.503Z,20.00
2023-04-15T20:05:25.397Z,20.00
2023-04-15T20:07:53.157Z,20.00
2023-04-15T20:10:23.170Z,19.90
2023-04-15T20:12:52.609Z,19.90
2023-04-15T20:15:22.525Z,19.90
2023-04-15T20:17:50.003Z,19.90
2023-04-15T20:20:16.887Z,19.80
2023-04-15T20:22:43.687Z,19.80
2023-04-15T20:25:10.425Z,19.80
2023-04-15T20:27:37.164Z,19.80
2023-04-15T20:30:05.006Z,19.70
2023-04-15T20:32:36.036Z,19.70
2023-04-15T20:35:04.703Z,19.70
2023-04-15T20:37:33.386Z,19.70
2023-04-15T20:40:00.786Z,19.60
2023-04-15T20:42:27.607Z,19.60
2023-04-15T20:44:54.465Z,19.60
2023-04-15T20:47:21.387Z,19.60
2023-04-15T20:49:49.156Z,19.60
2023-04-15T20:52:16.363Z,19.50
2023-04-15T20:54:43.138Z,19.50
2023-04-15T20:57:09.923Z,19.50
2023-04-15T20:59:36.834Z,19.50
2023-04-15T21:02:03.688Z,19.40
2023-04-15T21:04:30.550Z,19.40
2023-04-15T21:06:57.293Z,19.40
2023-04-15T21:09:24.905Z,19.40
2023-04-15T21:14:21.480Z,19.40
2023-04-15T21:16:48.332Z,19.30
2023-04-15T21:19:15.144Z,19.30
2023-04-15T21:21:41.871Z,19.30
2023-04-15T21:24:08.783Z,19.30
2023-04-15T21:26:36.469Z,19.30
2023-04-15T21:29:03.584Z,19.20
2023-04-15T21:31:30.895Z,19.20
2023-04-15T21:33:57.784Z,19.20
2023-04-15T21:36:24.615Z,19.20
2023-04-15T21:38:51.419Z,19.10
2023-04-15T21:41:18.275Z,19.10
2023-04-15T21:43:45.036Z,19.10
2023-04-15T21:46:22.344Z,19.10
2023-04-15T21:48:54.887Z,19.10
2023-04-15T21:51:22.239Z,19.00
2023-04-15T21:53:49.279Z,19.00
2023-04-15T21:56:16.203Z,19.00
2023-04-15T21:58:43.162Z,19.00
2023-04-15T22:01:10.050Z,19.00
2023-04-15T22:03:36.995Z,18.90
2023-04-15T22:06:04.486Z,18.90
2023-04-15T22:08:44.622Z,18.90
2023-04-15T22:11:27.144Z,18.90
2023-04-15T22:13:54.669Z,18.90
2023-04-15T22:16:21.636Z,18.80
2023-04-15T22:18:48.782Z,18.80
2023-04-15T22:21:15.600Z,18.80
2023-04-15T22:23:42.451Z,18.80
2023-04-15T22:26:09.192Z,18.80
2023-04-15T22:28:35.956Z,18.80
2023-04-15T22:31:03.907Z,18.80
2023-04-15T22:33:30.729Z,18.80
2023-04-15T22:35:57.559Z,18.70
2023-04-15T22:38:25.070Z,18.70
2023-04-15T22:40:53.942Z,18.70
2023-04-15T22:43:20.791Z,18.70
2023-04-15T22:45:51.188Z,18.70
2023-04-15T22:48:18.766Z,18.60
2023-04-15T22:50:45.884Z,18.60
2023-04-15T22:53:13.053Z,18.60
2023-04-15T22:55:39.791Z,18.60
2023-04-15T22:58:06.539Z,18.60
2023-04-15T23:00:33.357Z,18.60
2023-04-15T23:03:00.707Z,18.50
2023-04-15T23:05:27.869Z,18.60
2023-04-15T23:07:54.813Z,18.50
2023-04-15T23:10:21.624Z,18.50
2023-04-15T23:12:48.464Z,18.50
2023-04-15T23:15:16.208Z,18.50
2023-04-15T23:17:43.464Z,18.40
2023-04-15T23:20:11.367Z,18.40
2023-04-15T23:22:38.632Z,18.50
2023-04-15T23:25:06.178Z,18.40
2023-04-15T23:27:33.065Z,18.40
2023-04-15T23:29:59.846Z,18.40
2023-04-15T23:32:27.397Z,18.40
2023-04-15T23:34:54.514Z,18.40
2023-04-15T23:37:21.516Z,18.30
2023-04-15T23:39:48.286Z,18.30
2023-04-15T23:42:15.087Z,18.30
2023-04-15T23:44:41.919Z,18.30
2023-04-15T23:47:09.072Z,18.30
2023-04-15T23:49:36.988Z,18.30
2023-04-15T23:52:04.136Z,18.20
2023-04-15T23:54:30.958Z,18.20
2023-04-15T23:56:57.815Z,18.20
2023-04-15T23:59:24.828Z,18.20
